Time;durP1;ratioP1;P1;durP2;ratioP2;P2;SDS_P1;SDS_P2;PMS_P1;PMS_P2;Temp;Humidity;BMP_temperature;BMP_pressure;BME280_temperature;BME280_humidity;BME280_pressure;Samples;Min_cycle;Max_cycle;Signal;HPM_P1;HPM_P2
2021/09/15 00:02:25;;;;;;;16.15;13.45;;;18.10;99.90;;;;;;4987440;28;20067;-80
2021/09/15 00:04:52;;;;;;;15.40;12.80;;;18.10;99.90;;;;;;4988381;28;20526;-81
2021/09/15 00:07:19;;;;;;;15.82;12.45;;;18.00;99.90;;;;;;4986711;28;20104;-79
2021/09/15 00:09:45;;;;;;;13.77;12.15;;;18.10;99.90;;;;;;4952739;28;20522;-80
2021/09/15 00:12:12;;;;;;;15.70;13.38;;;18.10;99.90;;;;;;4971586;28;20057;-80
2021/09/15 00:14:39;;;;;;;17.48;12.85;;;18.10;99.90;;;;;;4970080;28;20042;-81
2021/09/15 00:17:06;;;;;;;16.35;13.05;;;18.00;99.90;;;;;;4987687;28;20491;-80
2021/09/15 00:19:33;;;;;;;17.75;13.32;;;18.00;99.90;;;;;;4970909;28;20584;-80
2021/09/15 00:21:59;;;;;;;18.25;14.73;;;18.00;99.90;;;;;;4970537;28;20066;-81
2021/09/15 00:24:26;;;;;;;18.77;13.20;;;18.00;99.90;;;;;;4987431;28;20042;-80
2021/09/15 00:26:53;;;;;;;18.52;13.90;;;17.80;99.90;;;;;;4993030;28;20403;-82
2021/09/15 00:29:20;;;;;;;16.38;13.57;;;17.90;99.90;;;;;;4954754;28;20042;-80
2021/09/15 00:31:46;;;;;;;16.73;15.02;;;17.80;99.90;;;;;;4987181;28;20046;-79
2021/09/15 00:34:13;;;;;;;14.15;12.65;;;17.80;99.90;;;;;;4987347;28;20054;-81
2021/09/15 00:36:40;;;;;;;16.58;12.98;;;17.90;99.90;;;;;;4984680;28;20062;-81
2021/09/15 00:39:07;;;;;;;13.98;11.90;;;17.90;99.90;;;;;;4986591;28;20121;-81
2021/09/15 00:41:34;;;;;;;16.08;12.65;;;18.00;99.90;;;;;;4955100;28;20116;-81
2021/09/15 00:44:07;;;;;;;16.63;13.25;;;18.00;99.90;;;;;;4987222;28;20399;-79
2021/09/15 00:46:37;;;;;;;16.25;12.88;;;18.10;99.90;;;;;;4985574;28;20047;-80
2021/09/15 00:49:05;;;;;;;14.75;12.38;;;18.10;99.90;;;;;;4986762;28;20607;-82
2021/09/15 00:51:40;;;;;;;16.95;13.57;;;18.10;99.90;;;;;;4988072;28;20054;-80
2021/09/15 00:54:09;;;;;;;15.77;13.63;;;18.10;99.90;;;;;;4968596;28;20094;-80
2021/09/15 00:56:40;;;;;;;15.60;13.07;;;18.00;99.90;;;;;;4964101;28;20125;-80
2021/09/15 00:59:08;;;;;;;15.93;12.88;;;17.90;99.90;;;;;;4971434;28;20133;-79
2021/09/15 01:01:37;;;;;;;15.85;12.40;;;17.90;99.90;;;;;;4954001;28;20303;-79
2021/09/15 01:04:05;;;;;;;16.88;12.85;;;18.00;99.90;;;;;;4971450;28;20060;-80
2021/09/15 01:06:35;;;;;;;16.98;12.93;;;18.00;99.90;;;;;;4970991;28;20054;-79
2021/09/15 01:09:07;;;;;;;13.48;11.63;;;18.00;99.90;;;;;;4968967;28;20451;-80
2021/09/15 01:11:35;;;;;;;15.60;11.75;;;18.10;99.90;;;;;;4970404;28;20097;-79
2021/09/15 01:14:14;;;;;;;14.90;12.38;;;17.90;99.90;;;;;;4969730;28;20150;-80
2021/09/15 01:16:55;;;;;;;16.70;13.13;;;17.80;99.90;;;;;;4967749;28;20102;-80
2021/09/15 01:19:45;;;;;;;16.65;13.07;;;17.80;99.90;;;;;;4945278;28;20050;-80
2021/09/15 01:22:35;;;;;;;17.60;13.55;;;17.70;99.90;;;;;;4958732;28;20053;-81
2021/09/15 01:25:34;;;;;;;16.55;12.82;;;17.70;99.90;;;;;;4969360;28;20066;-80
2021/09/15 01:28:31;;;;;;;19.10;14.40;;;17.70;99.90;;;;;;4973753;28;20046;-81
2021/09/15 01:31:07;;;;;;;17.58;13.85;;;17.80;99.90;;;;;;4953074;28;20507;-80
2021/09/15 01:33:33;;;;;;;16.17;13.75;;;17.90;99.90;;;;;;4986291;28;20133;-80
2021/09/15 01:36:01;;;;;;;15.20;12.77;;;17.90;99.90;;;;;;4969391;28;20046;-79
2021/09/15 01:38:28;;;;;;;13.13;11.73;;;17.80;99.90;;;;;;4985671;28;20081;-80
2021/09/15 01:40:57;;;;;;;14.85;12.27;;;17.80;99.90;;;;;;4986102;28;20064;-80
2021/09/15 01:43:25;;;;;;;14.75;12.43;;;17.90;99.90;;;;;;4994855;28;20068;-80
2021/09/15 01:45:51;;;;;;;13.45;11.98;;;17.90;99.90;;;;;;4960444;28;20413;-80
2021/09/15 01:48:21;;;;;;;14.82;12.88;;;17.90;99.90;;;;;;4984745;28;20510;-80
2021/09/15 01:50:48;;;;;;;18.63;11.82;;;18.00;99.90;;;;;;4966874;28;20165;-81
2021/09/15 01:53:15;;;;;;;15.43;13.02;;;18.00;99.90;;;;;;4984058;28;20060;-81
2021/09/15 01:55:42;;;;;;;14.45;12.82;;;18.00;99.90;;;;;;4984611;28;20054;-80
2021/09/15 01:58:27;;;;;;;;;;;18.00;99.90;;;;;;4986985;28;20077;-81
2021/09/15 02:01:05;;;;;;;15.65;13.23;;;18.00;99.90;;;;;;5001058;28;19977;-80
2021/09/15 02:04:04;;;;;;;16.95;12.50;;;17.80;99.90;;;;;;4945238;28;20263;-80
2021/09/15 02:06:51;;;;;;;13.85;10.90;;;17.80;99.90;;;;;;4951649;28;20287;-80
2021/09/15 02:09:43;;;;;;;15.60;11.98;;;17.90;99.90;;;;;;4983609;28;20046;-80
2021/09/15 02:12:14;;;;;;;16.45;13.02;;;18.00;99.90;;;;;;4968802;28;20581;-80
2021/09/15 02:14:42;;;;;;;14.73;12.10;;;17.90;99.90;;;;;;4968092;28;20050;-81
2021/09/15 02:17:10;;;;;;;18.23;12.98;;;17.90;99.90;;;;;;4967569;28;20057;-80
2021/09/15 02:19:37;;;;;;;14.15;12.65;;;17.90;99.90;;;;;;4984169;28;20089;-79
2021/09/15 02:22:29;;;;;;;14.15;12.68;;;17.90;99.90;;;;;;4970776;28;20042;-80
2021/09/15 02:25:15;;;;;;;15.40;12.00;;;17.80;99.90;;;;;;4984275;28;20061;-81
2021/09/15 02:28:08;;;;;;;15.85;13.77;;;17.80;99.90;;;;;;4955369;28;20078;-80
2021/09/15 02:30:54;;;;;;;18.05;13.88;;;18.00;99.90;;;;;;4967579;28;20073;-81
2021/09/15 02:33:39;;;;;;;15.68;13.70;;;17.90;99.90;;;;;;4970939;28;20070;-81
2021/09/15 02:36:11;;;;;;;15.27;13.07;;;17.90;99.90;;;;;;4968428;28;20474;-80
2021/09/15 02:38:52;;;;;;;13.98;12.10;;;17.70;99.90;;;;;;4968426;28;20203;-79
2021/09/15 02:41:48;;;;;;;21.98;12.95;;;17.60;99.90;;;;;;4967617;28;20120;-81
2021/09/15 02:44:28;;;;;;;15.02;13.45;;;17.60;99.90;;;;;;4970305;28;20104;-81
2021/09/15 02:47:14;;;;;;;;;;;17.70;99.90;;;;;;4987352;28;20157;-81
2021/09/15 02:49:59;;;;;;;15.65;13.30;;;17.80;99.90;;;;;;4970199;28;19926;-80
2021/09/15 02:52:52;;;;;;;18.40;15.02;;;17.80;99.90;;;;;;4946359;28;20074;-79
2021/09/15 02:55:34;;;;;;;17.48;14.88;;;17.60;99.90;;;;;;4939941;28;20054;-81
2021/09/15 02:58:22;;;;;;;19.88;16.48;;;17.60;99.90;;;;;;4988387;28;20419;-81
2021/09/15 03:00:58;;;;;;;20.20;13.57;;;17.60;99.90;;;;;;4957127;28;20198;-80
2021/09/15 03:03:39;;;;;;;15.82;13.65;;;17.60;99.90;;;;;;4972678;28;20058;-81
2021/09/15 03:06:14;;;;;;;16.63;14.43;;;17.60;99.90;;;;;;4957165;28;20149;-81
2021/09/15 03:08:59;;;;;;;;;;;17.50;99.90;;;;;;4974428;28;20062;-80
2021/09/15 03:11:26;;;;;;;18.02;14.48;;;17.60;99.90;;;;;;4971804;28;19937;-81
2021/09/15 03:13:53;;;;;;;19.75;15.07;;;17.60;99.90;;;;;;4972163;28;20188;-81
2021/09/15 03:16:24;;;;;;;19.73;15.60;;;17.60;99.90;;;;;;4971643;28;20576;-81
2021/09/15 03:18:55;;;;;;;21.73;15.77;;;17.70;99.90;;;;;;4958594;28;20050;-80
2021/09/15 03:21:22;;;;;;;18.85;16.00;;;17.70;99.90;;;;;;4987165;28;20409;-81
2021/09/15 03:23:49;;;;;;;19.35;16.20;;;17.70;99.90;;;;;;4955723;28;20121;-79
2021/09/15 03:26:16;;;;;;;20.08;16.52;;;17.50;99.90;;;;;;4969933;28;20165;-82
2021/09/15 03:28:43;;;;;;;17.95;16.05;;;17.40;99.90;;;;;;4972219;28;20120;-79
2021/09/15 03:31:10;;;;;;;22.13;17.63;;;17.30;99.90;;;;;;4971647;28;20053;-79
2021/09/15 03:33:37;;;;;;;22.08;17.55;;;17.50;99.90;;;;;;4970760;28;20046;-81
2021/09/15 03:36:04;;;;;;;20.25;17.88;;;17.50;99.90;;;;;;4987761;28;20050;-81
2021/09/15 03:38:34;;;;;;;22.70;17.27;;;17.50;99.90;;;;;;4970268;28;20045;-81
2021/09/15 03:41:03;;;;;;;21.77;19.40;;;17.50;99.90;;;;;;4985993;28;20062;-82
2021/09/15 03:43:30;;;;;;;24.05;19.05;;;17.50;99.90;;;;;;4986734;28;20053;-82
2021/09/15 03:45:57;;;;;;;23.38;18.70;;;17.50;99.90;;;;;;4987262;28;20046;-81
2021/09/15 03:48:24;;;;;;;22.35;17.85;;;17.40;99.90;;;;;;4969501;28;20069;-80
2021/09/15 03:50:50;;;;;;;25.88;19.90;;;17.40;99.90;;;;;;4971310;28;20050;-80
2021/09/15 03:53:19;;;;;;;25.27;18.92;;;17.50;99.90;;;;;;4962311;28;20105;-79
2021/09/15 03:55:46;;;;;;;23.65;19.23;;;17.70;99.90;;;;;;4970938;28;20585;-81
2021/09/15 03:58:13;;;;;;;21.50;19.02;;;17.60;99.90;;;;;;4971781;28;20047;-80
2021/09/15 04:00:40;;;;;;;21.27;18.98;;;17.60;99.90;;;;;;4987524;28;20054;-80
2021/09/15 04:03:08;;;;;;;22.75;18.50;;;17.50;99.90;;;;;;4985944;28;20077;-79
2021/09/15 04:05:35;;;;;;;24.95;18.92;;;17.60;99.90;;;;;;4970649;28;20117;-81
2021/09/15 04:08:02;;;;;;;22.10;19.33;;;17.70;99.90;;;;;;4970586;28;20305;-80
2021/09/15 04:10:29;;;;;;;25.45;19.30;;;17.80;99.90;;;;;;4967100;28;20054;-81
2021/09/15 04:12:59;;;;;;;22.15;19.55;;;17.80;99.90;;;;;;4969124;28;20173;-80
2021/09/15 04:15:30;;;;;;;23.48;19.90;;;17.80;99.90;;;;;;4969873;28;20137;-80
2021/09/15 04:17:56;;;;;;;22.27;18.92;;;17.70;99.90;;;;;;4968294;28;20137;-80
2021/09/15 04:20:23;;;;;;;22.02;18.63;;;17.70;99.90;;;;;;4975919;28;20057;-81
2021/09/15 04:22:51;;;;;;;22.38;19.80;;;17.70;99.90;;;;;;4969216;28;20141;-81
2021/09/15 04:33:40;;;;;;;22.92;17.95;;;18.10;99.90;;;;;;4987094;28;20138;-81
2021/09/15 04:36:08;;;;;;;24.42;19.02;;;18.20;99.90;;;;;;4954589;28;20490;-80
2021/09/15 04:38:35;;;;;;;22.42;18.88;;;18.30;99.90;;;;;;4987400;28;20061;-80
2021/09/15 04:41:04;;;;;;;23.67;19.23;;;18.40;99.90;;;;;;4969690;28;20125;-81
2021/09/15 04:43:33;;;;;;;21.15;18.50;;;18.40;99.90;;;;;;4985960;28;20199;-80
2021/09/15 04:46:00;;;;;;;21.95;18.55;;;18.30;99.90;;;;;;4952147;28;20434;-80
2021/09/15 04:48:28;;;;;;;24.42;18.98;;;18.30;99.90;;;;;;4970710;28;20462;-79
2021/09/15 04:50:54;;;;;;;24.75;20.23;;;18.30;99.90;;;;;;4954652;28;20454;-81
2021/09/15 04:53:21;;;;;;;22.27;19.02;;;18.30;99.90;;;;;;4958040;28;20055;-81
2021/09/15 04:55:48;;;;;;;24.60;21.15;;;18.40;99.90;;;;;;4938084;28;20047;-80
2021/09/15 04:58:15;;;;;;;24.67;20.55;;;18.50;99.90;;;;;;4950023;28;20076;-72
2021/09/15 05:00:46;;;;;;;28.20;19.95;;;18.50;99.90;;;;;;4983635;28;20160;-72
2021/09/15 05:03:13;;;;;;;24.83;20.75;;;18.50;99.90;;;;;;4984966;28;20467;-72
2021/09/15 05:05:42;;;;;;;21.75;19.42;;;18.50;99.90;;;;;;4984593;28;20058;-73
2021/09/15 05:08:14;;;;;;;29.23;22.27;;;18.40;99.90;;;;;;4984140;28;20070;-72
2021/09/15 05:10:41;;;;;;;24.45;20.17;;;18.40;99.90;;;;;;4949804;28;20081;-72
2021/09/15 05:13:09;;;;;;;24.50;19.58;;;18.30;99.90;;;;;;4968562;28;20283;-72
2021/09/15 05:15:38;;;;;;;25.38;19.38;;;18.30;99.90;;;;;;4968012;28;20499;-72
2021/09/15 05:18:06;;;;;;;22.40;19.70;;;18.50;99.90;;;;;;4980877;28;20058;-72
2021/09/15 05:20:34;;;;;;;23.02;19.77;;;18.40;99.90;;;;;;4969154;28;20137;-72
2021/09/15 05:23:01;;;;;;;23.55;19.08;;;18.40;99.90;;;;;;4968586;28;20155;-73
2021/09/15 05:25:28;;;;;;;24.25;19.33;;;18.40;99.90;;;;;;5000465;28;20389;-72
2021/09/15 05:27:56;;;;;;;21.63;18.55;;;18.40;99.90;;;;;;4983733;28;20100;-72
2021/09/15 05:30:26;;;;;;;24.63;19.60;;;18.40;99.90;;;;;;4966921;28;20515;-72
2021/09/15 05:32:57;;;;;;;22.23;18.10;;;18.40;99.90;;;;;;4967662;28;20046;-73
2021/09/15 05:35:25;;;;;;;22.30;19.02;;;18.30;99.90;;;;;;4984035;28;20058;-72
2021/09/15 05:37:56;;;;;;;20.10;16.45;;;18.20;99.90;;;;;;4983909;28;20049;-72
2021/09/15 05:40:23;;;;;;;24.35;16.00;;;18.10;99.90;;;;;;4967461;28;20110;-72
2021/09/15 05:42:50;;;;;;;20.83;16.98;;;18.20;99.90;;;;;;4969343;28;20056;-72
2021/09/15 05:45:18;;;;;;;19.95;15.30;;;18.20;99.90;;;;;;4950659;28;20072;-72
2021/09/15 05:47:46;;;;;;;22.00;17.83;;;18.30;99.90;;;;;;4984562;28;20065;-72
2021/09/15 05:50:13;;;;;;;17.75;15.88;;;18.30;99.90;;;;;;4982997;28;20050;-72
2021/09/15 05:52:46;;;;;;;18.25;16.35;;;18.40;99.90;;;;;;4959324;28;20141;-72
2021/09/15 05:55:14;;;;;;;19.55;16.20;;;18.40;99.90;;;;;;4970044;28;20055;-73
2021/09/15 05:57:40;;;;;;;22.45;16.70;;;18.50;99.90;;;;;;4967276;28;20449;-72
2021/09/15 06:00:08;;;;;;;18.33;16.10;;;18.50;99.90;;;;;;4981176;28;20065;-72
2021/09/15 06:02:56;;;;;;;17.83;15.93;;;18.50;99.90;;;;;;4983801;28;20058;-72
2021/09/15 06:05:49;;;;;;;;;;;18.50;99.90;;;;;;4979059;28;20051;-72
2021/09/15 06:08:17;;;;;;;20.17;16.35;;;18.60;99.90;;;;;;4966837;28;19929;-72
2021/09/15 06:10:44;;;;;;;20.52;16.85;;;18.60;99.90;;;;;;4980609;28;20138;-72
2021/09/15 06:13:11;;;;;;;16.30;14.68;;;18.70;99.90;;;;;;4982725;28;20392;-73
2021/09/15 06:15:39;;;;;;;16.80;15.00;;;18.80;99.90;;;;;;4982302;28;20054;-72
2021/09/15 06:18:07;;;;;;;19.77;15.88;;;18.70;99.90;;;;;;4964415;28;20052;-72
2021/09/15 06:20:51;;;;;;;22.23;16.23;;;18.70;99.90;;;;;;4998447;28;20057;-73
2021/09/15 06:23:38;;;;;;;18.05;16.15;;;18.70;99.90;;;;;;4983763;28;20050;-72
2021/09/15 06:26:11;;;;;;;20.48;17.25;;;18.90;99.90;;;;;;4965945;28;20173;-72
2021/09/15 06:28:39;;;;;;;18.80;16.70;;;18.90;99.90;;;;;;4967166;28;20050;-72
2021/09/15 06:31:06;;;;;;;20.67;17.00;;;18.90;99.90;;;;;;4983269;28;20058;-73
2021/09/15 06:33:33;;;;;;;21.75;16.38;;;18.80;99.90;;;;;;4983161;28;20062;-72
2021/09/15 06:36:02;;;;;;;20.83;15.75;;;18.80;99.90;;;;;;4984008;28;20116;-72
2021/09/15 06:38:29;;;;;;;20.45;16.70;;;18.80;99.90;;;;;;4981870;28;20495;-72
2021/09/15 06:40:55;;;;;;;20.08;17.48;;;19.00;99.90;;;;;;4983902;28;20058;-72
2021/09/15 06:43:22;;;;;;;20.75;18.63;;;19.10;99.90;;;;;;4966132;28;20066;-72
2021/09/15 06:45:49;;;;;;;20.02;17.25;;;19.20;99.90;;;;;;4982885;28;20086;-72
2021/09/15 06:48:16;;;;;;;19.98;17.80;;;19.10;99.90;;;;;;4983836;28;20069;-72
2021/09/15 06:50:42;;;;;;;18.73;16.73;;;19.10;99.90;;;;;;4980867;28;20066;-73
2021/09/15 06:53:10;;;;;;;18.23;16.20;;;19.20;99.90;;;;;;4983818;28;20092;-72
2021/09/15 06:55:37;;;;;;;18.92;16.92;;;19.20;99.90;;;;;;4984044;28;20058;-73
2021/09/15 06:58:04;;;;;;;22.90;17.40;;;19.30;99.90;;;;;;4981916;28;20042;-73
2021/09/15 07:00:35;;;;;;;17.98;15.57;;;19.40;99.90;;;;;;4983107;28;20463;-73
2021/09/15 07:03:03;;;;;;;17.98;16.00;;;19.50;99.90;;;;;;4983158;28;20141;-72
2021/09/15 07:05:30;;;;;;;21.15;17.65;;;19.40;99.90;;;;;;4983721;28;20054;-72
2021/09/15 07:07:57;;;;;;;18.55;16.35;;;19.40;99.90;;;;;;4982783;28;20097;-72
2021/09/15 07:10:24;;;;;;;20.23;17.15;;;19.40;99.90;;;;;;4981143;28;20080;-72
2021/09/15 07:12:51;;;;;;;17.42;15.57;;;19.60;99.90;;;;;;4983254;28;20046;-73
2021/09/15 07:15:18;;;;;;;17.92;15.65;;;19.70;99.90;;;;;;4965462;28;20046;-72
2021/09/15 07:17:44;;;;;;;19.95;16.77;;;19.70;99.90;;;;;;4982006;28;20058;-73
2021/09/15 07:20:13;;;;;;;19.42;15.38;;;19.80;99.90;;;;;;4998339;28;20054;-73
2021/09/15 07:22:40;;;;;;;19.63;16.42;;;19.90;99.90;;;;;;4984993;28;20050;-72
2021/09/15 07:25:08;;;;;;;17.25;15.35;;;20.00;99.90;;;;;;4982536;28;20058;-72
2021/09/15 07:27:35;;;;;;;20.85;16.33;;;19.80;99.90;;;;;;4984531;28;20495;-72
2021/09/15 07:30:03;;;;;;;21.63;16.95;;;19.70;99.90;;;;;;4965635;28;20179;-73
2021/09/15 07:32:30;;;;;;;19.15;16.05;;;19.70;99.90;;;;;;4966484;28;20061;-73
2021/09/15 07:34:56;;;;;;;20.80;16.35;;;19.80;99.90;;;;;;4983469;28;20517;-72
2021/09/15 07:37:23;;;;;;;18.90;15.43;;;19.70;99.90;;;;;;4983291;28;20054;-72
2021/09/15 07:39:50;;;;;;;17.58;15.75;;;19.80;99.90;;;;;;4966407;28;20165;-72
2021/09/15 07:42:17;;;;;;;19.75;16.70;;;19.90;99.90;;;;;;4984084;28;20101;-72
2021/09/15 07:44:44;;;;;;;21.90;16.77;;;19.90;99.90;;;;;;4985959;28;20093;-72
2021/09/15 07:47:15;;;;;;;18.35;15.73;;;19.80;99.90;;;;;;4984526;28;20046;-73
2021/09/15 07:49:43;;;;;;;18.38;16.35;;;19.80;99.90;;;;;;4986403;28;20266;-73
2021/09/15 07:52:10;;;;;;;24.45;17.00;;;20.00;99.90;;;;;;4966338;28;20058;-73
2021/09/15 07:54:38;;;;;;;22.75;16.58;;;20.20;99.90;;;;;;4968226;28;20293;-73
2021/09/15 07:57:06;;;;;;;17.48;15.68;;;20.20;99.90;;;;;;4984964;28;20050;-72
2021/09/15 07:59:32;;;;;;;19.70;17.63;;;20.30;99.90;;;;;;4985339;28;20054;-73
2021/09/15 08:01:59;;;;;;;20.55;16.15;;;20.30;99.90;;;;;;4986747;28;20108;-73
2021/09/15 08:04:26;;;;;;;19.30;16.42;;;20.20;99.90;;;;;;4985565;28;20414;-72
2021/09/15 08:06:53;;;;;;;20.05;16.73;;;20.10;99.90;;;;;;4986467;28;20058;-72
2021/09/15 08:09:21;;;;;;;19.52;15.93;;;20.10;99.90;;;;;;4983978;28;20050;-72
2021/09/15 08:11:48;;;;;;;18.48;16.15;;;20.20;99.90;;;;;;4984705;28;20370;-73
2021/09/15 08:14:15;;;;;;;18.08;16.25;;;20.20;99.90;;;;;;4986867;28;20503;-73
2021/09/15 08:16:41;;;;;;;25.27;16.13;;;20.40;99.90;;;;;;4993898;28;20046;-72
2021/09/15 08:19:08;;;;;;;20.20;16.67;;;20.60;99.90;;;;;;5001302;28;20050;-73
2021/09/15 08:21:40;;;;;;;19.30;14.90;;;20.70;99.90;;;;;;4988808;28;20116;-72
2021/09/15 08:24:07;;;;;;;19.70;16.20;;;20.70;99.90;;;;;;5001824;28;20046;-72
2021/09/15 08:26:34;;;;;;;18.20;14.68;;;20.70;99.90;;;;;;4985381;28;20035;-72
2021/09/15 08:29:01;;;;;;;15.85;14.05;;;20.80;99.90;;;;;;4985498;28;20065;-73
2021/09/15 08:31:27;;;;;;;18.58;14.60;;;21.00;99.90;;;;;;4984674;28;20161;-73
2021/09/15 08:33:54;;;;;;;16.05;14.50;;;21.10;99.90;;;;;;5000716;28;20121;-73
2021/09/15 08:36:21;;;;;;;17.13;13.93;;;21.30;99.90;;;;;;5000892;28;20054;-72
2021/09/15 08:38:48;;;;;;;16.50;14.70;;;21.30;99.90;;;;;;4984449;28;20042;-72
2021/09/15 08:41:15;;;;;;;16.58;14.60;;;21.20;99.90;;;;;;4966886;28;20085;-72
2021/09/15 08:43:43;;;;;;;16.35;14.65;;;21.30;99.90;;;;;;4983717;28;20062;-72
2021/09/15 08:46:12;;;;;;;16.38;14.57;;;21.30;99.90;;;;;;4984620;28;20054;-72
2021/09/15 08:48:41;;;;;;;16.73;13.73;;;21.30;99.90;;;;;;4986550;28;20058;-72
2021/09/15 08:51:13;;;;;;;16.70;14.35;;;21.20;99.90;;;;;;4968070;28;20418;-72
2021/09/15 08:53:43;;;;;;;16.95;15.15;;;21.10;99.90;;;;;;4983543;28;20046;-72
2021/09/15 08:56:10;;;;;;;20.35;16.40;;;21.10;99.90;;;;;;4978485;28;20113;-72
2021/09/15 08:58:37;;;;;;;16.88;14.90;;;21.00;99.90;;;;;;4984112;28;20121;-72
2021/09/15 09:01:22;;;;;;;18.55;16.60;;;20.90;99.90;;;;;;4966590;28;20050;-72
2021/09/15 09:03:52;;;;;;;19.15;17.15;;;20.90;99.90;;;;;;4984726;28;20065;-71
2021/09/15 09:06:24;;;;;;;21.20;18.95;;;20.70;99.90;;;;;;4985242;28;20046;-72
2021/09/15 09:08:57;;;;;;;21.00;18.70;;;20.70;99.90;;;;;;4983480;28;20062;-71
2021/09/15 09:11:31;;;;;;;24.77;20.42;;;20.40;99.90;;;;;;4967581;28;20056;-71
2021/09/15 09:14:07;;;;;;;25.80;21.95;;;20.30;99.90;;;;;;4968686;28;20446;-71
2021/09/15 09:16:49;;;;;;;22.38;19.35;;;20.30;99.90;;;;;;4967693;28;20061;-70
2021/09/15 09:19:23;;;;;;;23.48;20.15;;;20.20;99.90;;;;;;4965705;28;20145;-70
2021/09/15 09:21:52;;;;;;;29.45;22.98;;;20.30;99.90;;;;;;4983230;28;20055;-71
2021/09/15 09:24:22;;;;;;;33.40;24.58;;;20.30;99.90;;;;;;4985716;28;20093;-70
2021/09/15 09:27:03;;;;;;;25.70;21.98;;;20.40;99.90;;;;;;4981242;28;20640;-70
2021/09/15 09:29:36;;;;;;;;;;;20.30;99.90;;;;;;4997460;28;20055;-71
2021/09/15 09:32:10;;;;;;;23.75;21.20;;;20.40;99.90;;;;;;4982302;28;19922;-71
2021/09/15 09:34:44;;;;;;;24.30;20.67;;;20.30;99.90;;;;;;4963722;28;20228;-71
2021/09/15 09:37:16;;;;;;;28.38;23.20;;;20.30;99.90;;;;;;4991120;28;20042;-71
2021/09/15 09:39:47;;;;;;;24.02;21.52;;;20.50;99.90;;;;;;4982909;28;20050;-71
2021/09/15 09:42:23;;;;;;;23.75;21.08;;;20.60;99.90;;;;;;4983571;28;20149;-71
2021/09/15 09:45:09;;;;;;;25.02;21.70;;;20.80;99.90;;;;;;4984673;28;20054;-71
2021/09/15 09:47:38;;;;;;;23.65;20.45;;;20.90;99.90;;;;;;4980415;28;20354;-70
2021/09/15 09:50:19;;;;;;;25.35;19.65;;;20.90;99.90;;;;;;4983589;28;20137;-71
2021/09/15 09:53:03;;;;;;;22.73;20.33;;;21.00;99.90;;;;;;4993848;28;20062;-70
2021/09/15 09:55:36;;;;;;;27.77;22.85;;;21.10;99.90;;;;;;4998350;28;20528;-72
2021/09/15 09:58:05;;;;;;;20.45;18.25;;;21.10;99.90;;;;;;4983286;28;20456;-72
2021/09/15 10:00:32;;;;;;;20.73;18.55;;;21.50;99.90;;;;;;4984120;28;20499;-72
2021/09/15 10:03:02;;;;;;;25.60;19.13;;;21.70;99.90;;;;;;4982191;28;20054;-73
2021/09/15 10:05:29;;;;;;;20.85;18.02;;;21.80;99.90;;;;;;4983633;28;20062;-70
2021/09/15 10:07:56;;;;;;;20.08;17.23;;;22.00;99.90;;;;;;4984181;28;20065;-73
2021/09/15 10:10:23;;;;;;;19.20;17.00;;;21.90;99.90;;;;;;4965114;28;20578;-73
2021/09/15 10:12:51;;;;;;;23.85;18.00;;;21.80;99.90;;;;;;4998880;28;20519;-71
2021/09/15 10:15:18;;;;;;;18.92;16.90;;;21.70;99.90;;;;;;4983111;28;20523;-72
2021/09/15 10:17:52;;;;;;;21.70;16.92;;;21.60;99.90;;;;;;4966277;28;20101;-71
2021/09/15 10:20:26;;;;;;;18.77;16.70;;;21.60;99.90;;;;;;4983398;28;20058;-70
2021/09/15 10:22:54;;;;;;;17.02;15.23;;;21.70;99.90;;;;;;4982550;28;20416;-70
2021/09/15 10:25:38;;;;;;;13.23;11.60;;;21.60;99.90;;;;;;4963591;28;20110;-73
2021/09/15 10:28:09;;;;;;;16.20;13.15;;;21.60;99.90;;;;;;4978251;28;20073;-72
2021/09/15 10:30:42;;;;;;;17.02;11.88;;;21.50;99.90;;;;;;4964943;28;20136;-72
2021/09/15 10:33:37;;;;;;;37.42;14.88;;;21.50;99.90;;;;;;4964190;28;20085;-72
2021/09/15 10:36:16;;;;;;;17.40;11.77;;;21.50;99.90;;;;;;4964420;28;20046;-71
2021/09/15 10:38:56;;;;;;;12.57;11.27;;;21.50;99.90;;;;;;4957375;28;20048;-72
2021/09/15 10:41:42;;;;;;;10.55;9.20;;;21.50;99.90;;;;;;4981019;28;20053;-73
2021/09/15 10:44:10;;;;;;;11.15;7.57;;;21.40;99.90;;;;;;4966213;28;20053;-70
2021/09/15 10:46:39;;;;;;;9.77;7.18;;;21.30;99.90;;;;;;4982089;28;20050;-70
2021/09/15 10:49:22;;;;;;;7.55;6.82;;;21.20;99.90;;;;;;4981437;28;20081;-72
2021/09/15 10:52:10;;;;;;;9.30;7.25;;;21.00;99.90;;;;;;4982908;28;20046;-70
2021/09/15 10:54:47;;;;;;;8.80;6.65;;;20.90;99.90;;;;;;4983386;28;20058;-70
2021/09/15 10:57:16;;;;;;;8.88;6.85;;;20.90;99.90;;;;;;4982764;28;20065;-70
2021/09/15 10:59:57;;;;;;;7.25;5.72;;;20.90;99.90;;;;;;4984133;28;20109;-70
2021/09/15 11:02:31;;;;;;;7.03;5.63;;;20.90;99.90;;;;;;4982068;28;20066;-70
2021/09/15 11:05:26;;;;;;;11.27;6.30;;;20.80;99.90;;;;;;4981879;28;20050;-70
2021/09/15 11:07:53;;;;;;;8.02;5.93;;;20.90;99.90;;;;;;4983701;28;20050;-70
2021/09/15 11:10:42;;;;;;;8.35;5.70;;;20.90;99.90;;;;;;4979665;28;20473;-70
2021/09/15 11:13:12;;;;;;;7.57;5.38;;;21.00;99.90;;;;;;4978493;28;20642;-70
2021/09/15 11:15:44;;;;;;;9.15;4.72;;;21.10;99.90;;;;;;4981766;28;20054;-72
2021/09/15 11:18:25;;;;;;;6.22;4.47;;;21.20;99.90;;;;;;4985433;28;20054;-72
2021/09/15 11:21:03;;;;;;;10.82;5.43;;;21.20;99.90;;;;;;4987147;28;20050;-72
2021/09/15 11:23:31;;;;;;;5.85;4.90;;;21.30;99.90;;;;;;4985766;28;20054;-72
2021/09/15 11:26:00;;;;;;;5.90;4.53;;;21.30;99.90;;;;;;5001798;28;20702;-72
2021/09/15 11:28:27;;;;;;;9.13;4.25;;;21.30;99.90;;;;;;4980704;28;20592;-72
2021/09/15 11:30:57;;;;;;;7.38;4.43;;;21.20;99.90;;;;;;4987066;28;20257;-71
2021/09/15 11:33:31;;;;;;;7.30;4.80;;;21.20;99.90;;;;;;4986623;28;20152;-71
2021/09/15 11:36:09;;;;;;;4.97;4.18;;;21.20;99.90;;;;;;4987000;28;20065;-71
2021/09/15 11:38:39;;;;;;;7.97;5.10;;;21.20;99.90;;;;;;4986958;28;20066;-71
2021/09/15 11:41:14;;;;;;;4.85;3.88;;;21.20;99.90;;;;;;4968359;28;20062;-71
2021/09/15 11:43:48;;;;;;;5.78;4.30;;;21.30;99.90;;;;;;4984704;28;20109;-71
2021/09/15 11:46:16;;;;;;;6.22;4.78;;;21.40;99.90;;;;;;4986167;28;20584;-71
2021/09/15 11:48:44;;;;;;;7.53;4.82;;;21.40;99.90;;;;;;4986978;28;20062;-71
2021/09/15 11:51:22;;;;;;;5.13;4.63;;;21.40;99.90;;;;;;4984975;28;20050;-71
2021/09/15 11:54:00;;;;;;;8.27;5.38;;;21.30;99.90;;;;;;4986904;28;20058;-72
2021/09/15 11:56:44;;;;;;;9.05;4.93;;;21.30;99.90;;;;;;4985194;28;20135;-71
2021/09/15 11:59:12;;;;;;;6.47;5.00;;;21.20;99.90;;;;;;4986903;28;20479;-71
2021/09/15 12:02:00;;;;;;;6.75;4.95;;;21.20;99.90;;;;;;4984603;28;20628;-71
2021/09/15 12:04:27;;;;;;;7.30;5.18;;;21.20;99.90;;;;;;4986168;28;20077;-71
2021/09/15 12:06:54;;;;;;;5.30;4.63;;;21.20;99.90;;;;;;4985018;28;20470;-71
2021/09/15 12:09:25;;;;;;;10.68;5.78;;;21.20;99.90;;;;;;4982845;28;20066;-71
2021/09/15 12:11:52;;;;;;;7.47;5.32;;;21.10;99.90;;;;;;4984821;28;20080;-71
2021/09/15 12:14:19;;;;;;;5.65;4.70;;;21.00;99.90;;;;;;4986334;28;20384;-71
2021/09/15 12:16:46;;;;;;;7.20;4.82;;;21.00;99.90;;;;;;4999612;28;20054;-71
2021/09/15 12:19:17;;;;;;;8.95;4.95;;;20.90;99.90;;;;;;4985006;28;20057;-71
2021/09/15 12:21:47;;;;;;;4.50;4.10;;;20.90;99.90;;;;;;4984865;28;20065;-72
2021/09/15 12:24:15;;;;;;;6.55;4.10;;;20.90;99.90;;;;;;4968573;28;20403;-71
2021/09/15 12:26:42;;;;;;;7.03;4.53;;;21.00;99.90;;;;;;4985593;28;20058;-72
2021/09/15 12:29:14;;;;;;;6.03;4.72;;;21.00;99.90;;;;;;4983667;28;20053;-72
2021/09/15 12:31:47;;;;;;;6.03;4.15;;;21.00;99.90;;;;;;4985480;28;20054;-71
2021/09/15 12:34:15;;;;;;;5.68;4.10;;;21.00;99.90;;;;;;4984084;28;20050;-71
2021/09/15 12:36:43;;;;;;;7.45;4.25;;;21.00;99.90;;;;;;4980447;28;20546;-72
2021/09/15 12:39:13;;;;;;;8.25;4.53;;;21.10;99.90;;;;;;4985818;28;20116;-71
2021/09/15 12:41:57;;;;;;;8.20;4.30;;;21.10;99.90;;;;;;4982396;28;20323;-71
2021/09/15 12:44:34;;;;;;;7.38;4.13;;;21.10;99.90;;;;;;4982420;28;20101;-71
2021/09/15 12:47:06;;;;;;;5.57;4.38;;;21.10;99.90;;;;;;4985018;28;20077;-72
2021/09/15 12:49:41;;;;;;;6.80;3.97;;;21.10;99.90;;;;;;4984129;28;20062;-71
2021/09/15 12:52:16;;;;;;;4.47;3.88;;;21.20;99.90;;;;;;4982174;28;20062;-71
2021/09/15 12:54:57;;;;;;;4.28;3.83;;;21.20;99.90;;;;;;4979939;28;20402;-72
2021/09/15 12:57:27;;;;;;;6.28;3.97;;;21.10;99.90;;;;;;4965572;28;20058;-71
2021/09/15 12:59:54;;;;;;;4.15;3.75;;;21.10;99.90;;;;;;4980671;28;20557;-71
2021/09/15 13:02:23;;;;;;;7.35;4.50;;;21.10;99.90;;;;;;4964215;28;20574;-72
2021/09/15 13:04:50;;;;;;;5.18;3.85;;;21.20;99.90;;;;;;4980842;28;20055;-72